Time;durP1;ratioP1;P1;durP2;ratioP2;P2;SDS_P1;SDS_P2;PMS_P1;PMS_P2;Temp;Humidity;BMP_temperature;BMP_pressure;BME280_temperature;BME280_humidity;BME280_pressure;Samples;Min_cycle;Max_cycle;Signal;HPM_P1;HPM_P2
2022/12/16 00:00:09;;;;;;;;;;;20.80;68.90;;;;;;5040721;28;19923;-68
2022/12/16 00:02:35;;;;;;;;;;;20.60;69.70;;;;;;5047657;28;20415;-68
2022/12/16 00:05:02;;;;;;;;;;;20.50;69.70;;;;;;5047788;28;19954;-69
2022/12/16 00:07:29;;;;;;;;;;;20.30;70.20;;;;;;5053502;28;20008;-68
2022/12/16 00:09:56;;;;;;;;;;;20.20;69.70;;;;;;5055459;28;20631;-69
2022/12/16 00:12:22;;;;;;;;;;;20.20;70.30;;;;;;5036343;28;19978;-68
2022/12/16 00:14:49;;;;;;;;;;;20.20;69.30;;;;;;5044278;28;19913;-71
2022/12/16 00:17:15;;;;;;;;;;;20.30;69.40;;;;;;5051040;28;19909;-72
2022/12/16 00:19:42;;;;;;;;;;;20.40;69.20;;;;;;5049074;28;19990;-70
2022/12/16 00:22:09;;;;;;;;;;;20.30;69.60;;;;;;5047607;28;20375;-72
2022/12/16 00:24:35;;;;;;;;;;;20.50;69.20;;;;;;5051395;28;19917;-69
2022/12/16 00:27:02;;;;;;;;;;;20.60;69.40;;;;;;5041559;28;19921;-70
2022/12/16 00:29:29;;;;;;;;;;;20.90;69.20;;;;;;5052299;28;19913;-68
2022/12/16 00:31:55;;;;;;;;;;;21.20;68.40;;;;;;5043636;28;20376;-71
2022/12/16 00:34:22;;;;;;;;;;;21.50;68.40;;;;;;5032682;28;19920;-69
2022/12/16 00:36:49;;;;;;;;;;;21.80;67.90;;;;;;5036002;28;20357;-72
2022/12/16 00:39:15;;;;;;;;;;;22.00;67.40;;;;;;5051174;28;20682;-70
2022/12/16 00:41:42;;;;;;;;;;;22.00;67.30;;;;;;5045580;28;19917;-70
2022/12/16 00:44:09;;;;;;;;;;;21.90;67.60;;;;;;5032760;28;20328;-69
2022/12/16 00:46:35;;;;;;;;;;;21.90;67.30;;;;;;5043485;28;19939;-67
2022/12/16 00:49:02;;;;;;;;;;;22.00;67.60;;;;;;5035984;28;19975;-68
2022/12/16 00:51:29;;;;;;;;;;;22.10;67.60;;;;;;5038432;28;19917;-68
2022/12/16 00:53:55;;;;;;;;;;;22.10;67.30;;;;;;5049362;28;19913;-68
2022/12/16 00:56:22;;;;;;;;;;;21.80;68.80;;;;;;5045825;28;19927;-68
2022/12/16 00:58:49;;;;;;;;;;;21.70;68.80;;;;;;5056816;28;19920;-68
2022/12/16 01:01:16;;;;;;;;;;;21.90;69.60;;;;;;5053898;28;19984;-68
2022/12/16 01:03:42;;;;;;;;;;;21.80;69.60;;;;;;5052779;28;19958;-69
2022/12/16 01:06:16;;;;;;;;;;;21.80;69.00;;;;;;5056792;28;20628;-69
2022/12/16 01:08:52;;;;;;;;;;;21.80;69.50;;;;;;5048124;28;20483;-69
2022/12/16 01:11:19;;;;;;;;;;;21.80;68.30;;;;;;5053336;28;19909;-69
2022/12/16 01:13:50;;;;;;;;;;;21.70;68.30;;;;;;5033095;28;20522;-71
2022/12/16 01:16:16;;;;;;;;;;;21.50;68.30;;;;;;5050255;28;19997;-69
2022/12/16 01:18:43;;;;;;;;;;;21.50;68.70;;;;;;5054621;28;19908;-71
2022/12/16 01:21:11;;;;;;;;;;;21.30;69.70;;;;;;5050162;28;19919;-70
2022/12/16 01:23:38;;;;;;;;;;;21.20;71.50;;;;;;5045912;28;19917;-69
2022/12/16 01:26:05;;;;;;;;;;;21.50;69.60;;;;;;5051633;28;19924;-71
2022/12/16 01:28:31;;;;;;;;;;;21.70;68.70;;;;;;5055816;28;20586;-71
2022/12/16 01:31:00;;;;;;;;;;;21.80;68.50;;;;;;5054263;28;20000;-70
2022/12/16 01:33:31;;;;;;;;;;;21.90;68.50;;;;;;5053721;28;19931;-72
2022/12/16 01:35:58;;;;;;;;;;;21.70;68.60;;;;;;5053190;28;19962;-71
2022/12/16 01:38:25;;;;;;;;;;;21.80;69.20;;;;;;5053608;28;19919;-72
2022/12/16 01:40:51;;;;;;;;;;;22.00;69.10;;;;;;5053725;28;19921;-69
2022/12/16 01:43:20;;;;;;;;;;;22.10;69.00;;;;;;5051009;28;19970;-69
2022/12/16 01:45:47;;;;;;;;;;;22.10;68.40;;;;;;5045111;28;19978;-68
2022/12/16 01:48:14;;;;;;;;;;;21.90;68.90;;;;;;5049810;28;19921;-66
2022/12/16 01:50:41;;;;;;;;;;;22.00;69.10;;;;;;5051749;28;19912;-66
2022/12/16 01:53:07;;;;;;;;;;;22.00;69.00;;;;;;5045910;28;19919;-69
2022/12/16 01:55:37;;;;;;;;;;;22.30;68.00;;;;;;5054373;28;19908;-71
2022/12/16 01:58:10;;;;;;;;;;;22.60;67.20;;;;;;5047787;28;19912;-67
2022/12/16 02:00:38;;;;;;;;;;;22.60;67.00;;;;;;5045004;28;20373;-69
2022/12/16 02:03:05;;;;;;;;;;;22.60;67.70;;;;;;5042131;28;19913;-70
2022/12/16 02:05:34;;;;;;;;;;;22.70;67.30;;;;;;5045448;28;19951;-68
2022/12/16 02:08:11;;;;;;;;;;;22.60;68.00;;;;;;5040766;28;19924;-68
2022/12/16 02:10:42;;;;;;;;;;;22.60;68.40;;;;;;5054590;28;19908;-69
2022/12/16 02:13:17;;;;;;;;;;;22.70;68.20;;;;;;5051162;28;20444;-70
2022/12/16 02:16:02;;;;;;;;;;;22.90;67.60;;;;;;5044977;28;20361;-67
2022/12/16 02:18:46;;;;;;;;;;;22.90;66.90;;;;;;5049527;28;20082;-69
2022/12/16 02:21:19;;;;;;;;;;;23.00;67.40;;;;;;5050337;28;19915;-69
2022/12/16 02:23:51;;;;;;;;;;;23.10;66.90;;;;;;5054072;28;20018;-68
2022/12/16 02:26:27;;;;;;;;;;;23.30;66.90;;;;;;5052420;28;20023;-68
2022/12/16 02:29:20;;;;;;;;;;;23.70;66.50;;;;;;5054936;28;19922;-70
2022/12/16 02:31:50;;;;;;;;;;;23.60;65.70;;;;;;5053763;28;20284;-68
2022/12/16 02:34:21;;;;;;;;;;;23.60;66.70;;;;;;5052889;28;19974;-68
2022/12/16 02:36:56;;;;;;;;;;;23.80;67.80;;;;;;5054369;28;19908;-68
2022/12/16 02:39:30;;;;;;;;;;;23.90;65.90;;;;;;5052191;28;19909;-69
2022/12/16 02:41:57;;;;;;;;;;;23.90;66.30;;;;;;5050836;28;19939;-68
2022/12/16 02:44:30;;;;;;;;;;;23.80;67.40;;;;;;5043327;28;19912;-69
2022/12/16 02:46:57;;;;;;;;;;;23.80;68.70;;;;;;5044388;28;20365;-68
2022/12/16 02:49:23;;;;;;;;;;;23.80;68.80;;;;;;5044399;28;19920;-68
2022/12/16 02:51:50;;;;;;;;;;;24.10;66.10;;;;;;5053053;28;19912;-69
2022/12/16 02:54:17;;;;;;;;;;;24.40;65.70;;;;;;5051618;28;20429;-69
2022/12/16 02:57:04;;;;;;;;;;;24.50;66.10;;;;;;5049242;28;19948;-71
2022/12/16 02:59:31;;;;;;;;;;;25.00;64.60;;;;;;5035719;28;19912;-70
2022/12/16 03:02:05;;;;;;;;;;;25.70;64.00;;;;;;5042797;28;20368;-70
2022/12/16 03:04:41;;;;;;;;;;;26.30;63.10;;;;;;5046414;28;19953;-71
2022/12/16 03:07:10;;;;;;;;;;;26.70;62.30;;;;;;5036129;28;19923;-68
2022/12/16 03:09:38;;;;;;;;;;;27.50;60.90;;;;;;5033710;28;19986;-69
2022/12/16 03:12:07;;;;;;;;;;;28.00;60.30;;;;;;5037569;28;19909;-69
2022/12/16 03:14:34;;;;;;;;;;;28.60;59.80;;;;;;5050768;28;19924;-70
2022/12/16 03:17:01;;;;;;;;;;;29.00;60.00;;;;;;5054078;28;19923;-70
2022/12/16 03:19:29;;;;;;;;;;;29.50;57.80;;;;;;5050245;28;19915;-69
2022/12/16 03:21:58;;;;;;;;;;;29.60;58.10;;;;;;5054503;28;19908;-69
2022/12/16 03:24:25;;;;;;;;;;;29.90;57.80;;;;;;5047025;28;19996;-70
2022/12/16 03:27:07;;;;;;;;;;;30.30;57.80;;;;;;5046062;28;19925;-71
2022/12/16 03:29:53;;;;;;;;;;;30.40;57.90;;;;;;5049530;28;19923;-69
2022/12/16 03:32:29;;;;;;;;;;;30.90;55.30;;;;;;5051155;28;19948;-71
2022/12/16 03:35:01;;;;;;;;;;;30.50;55.50;;;;;;5040160;28;19913;-67
2022/12/16 03:37:31;;;;;;;;;;;30.80;55.60;;;;;;5056207;28;19916;-68
2022/12/16 03:39:59;;;;;;;;;;;30.90;56.00;;;;;;5054619;28;20357;-69
2022/12/16 03:42:26;;;;;;;;;;;31.70;55.80;;;;;;5055126;28;19974;-69
2022/12/16 03:44:53;;;;;;;;;;;31.40;55.00;;;;;;5047582;28;19919;-69
2022/12/16 03:47:20;;;;;;;;;;;31.50;55.10;;;;;;5036961;28;20000;-69
2022/12/16 03:49:47;;;;;;;;;;;31.50;54.90;;;;;;5048433;28;19913;-67
2022/12/16 03:52:14;;;;;;;;;;;31.90;55.40;;;;;;5055342;28;19912;-69
2022/12/16 03:54:40;;;;;;;;;;;32.80;54.20;;;;;;5050667;28;20289;-70
2022/12/16 03:57:07;;;;;;;;;;;32.70;53.80;;;;;;5057407;28;19909;-69
2022/12/16 03:59:34;;;;;;;;;;;33.40;53.50;;;;;;5048581;28;19948;-67
2022/12/16 04:02:00;;;;;;;;;;;32.90;53.20;;;;;;5049645;28;19919;-68
2022/12/16 04:04:27;;;;;;;;;;;32.90;53.30;;;;;;5051813;28;19935;-70
2022/12/16 04:09:38;;;;;;;;;;;32.20;52.60;;;;;;5048056;28;19923;-69
2022/12/16 04:25:49;;;;;;;;;;;32.60;53.60;;;;;;5036524;28;19931;-70
2022/12/16 04:28:16;;;;;;;;;;;32.50;53.10;;;;;;5040337;28;19928;-71
2022/12/16 04:30:42;;;;;;;;;;;32.40;53.80;;;;;;5054384;28;19908;-71
